sensor_id;sensor_type;location;lat;lon;timestamp;P1;durP1;ratioP1;P2;durP2;ratioP2
14209;SDS011;7188;56.070;12.698;2022-10-29T00:00:40;52.90;;;30.93;;
14209;SDS011;7188;56.070;12.698;2022-10-29T00:03:07;61.63;;;33.83;;
14209;SDS011;7188;56.070;12.698;2022-10-29T00:05:33;56.37;;;31.83;;
14209;SDS011;7188;56.070;12.698;2022-10-29T00:07:59;58.50;;;33.47;;
14209;SDS011;7188;56.070;12.698;2022-10-29T00:10:25;55.33;;;31.73;;
14209;SDS011;7188;56.070;12.698;2022-10-29T00:12:50;50.17;;;31.67;;
14209;SDS011;7188;56.070;12.698;2022-10-29T00:15:16;50.50;;;31.17;;
14209;SDS011;7188;56.070;12.698;2022-10-29T00:17:42;53.97;;;30.27;;
14209;SDS011;7188;56.070;12.698;2022-10-29T00:20:07;51.53;;;28.93;;
14209;SDS011;7188;56.070;12.698;2022-10-29T00:22:33;46.93;;;27.43;;
14209;SDS011;7188;56.070;12.698;2022-10-29T00:24:59;50.17;;;27.83;;
14209;SDS011;7188;56.070;12.698;2022-10-29T00:27:25;48.10;;;26.80;;
14209;SDS011;7188;56.070;12.698;2022-10-29T00:29:50;54.47;;;26.27;;
14209;SDS011;7188;56.070;12.698;2022-10-29T00:32:16;45.23;;;24.93;;
14209;SDS011;7188;56.070;12.698;2022-10-29T00:34:42;40.00;;;23.83;;
14209;SDS011;7188;56.070;12.698;2022-10-29T00:37:07;40.57;;;24.83;;
14209;SDS011;7188;56.070;12.698;2022-10-29T00:39:33;42.57;;;24.40;;
14209;SDS011;7188;56.070;12.698;2022-10-29T00:41:59;40.53;;;22.77;;
14209;SDS011;7188;56.070;12.698;2022-10-29T00:44:34;42.90;;;23.30;;
14209;SDS011;7188;56.070;12.698;2022-10-29T00:47:01;41.33;;;23.87;;
14209;SDS011;7188;56.070;12.698;2022-10-29T00:49:28;38.73;;;21.67;;
14209;SDS011;7188;56.070;12.698;2022-10-29T00:51:55;39.67;;;21.57;;
14209;SDS011;7188;56.070;12.698;2022-10-29T00:54:21;42.07;;;21.87;;
14209;SDS011;7188;56.070;12.698;2022-10-29T00:56:51;36.77;;;22.03;;
14209;SDS011;7188;56.070;12.698;2022-10-29T00:59:20;37.43;;;19.60;;
14209;SDS011;7188;56.070;12.698;2022-10-29T01:01:46;37.90;;;20.23;;
14209;SDS011;7188;56.070;12.698;2022-10-29T01:04:12;39.93;;;20.63;;
14209;SDS011;7188;56.070;12.698;2022-10-29T01:06:38;35.40;;;18.37;;
14209;SDS011;7188;56.070;12.698;2022-10-29T01:09:07;42.83;;;18.37;;
14209;SDS011;7188;56.070;12.698;2022-10-29T01:12:17;38.20;;;18.07;;
14209;SDS011;7188;56.070;12.698;2022-10-29T01:17:37;33.80;;;16.50;;
14209;SDS011;7188;56.070;12.698;2022-10-29T01:34:16;33.53;;;13.67;;
14209;SDS011;7188;56.070;12.698;2022-10-29T01:36:38;37.30;;;13.23;;
14209;SDS011;7188;56.070;12.698;2022-10-29T01:39:11;30.73;;;12.00;;
14209;SDS011;7188;56.070;12.698;2022-10-29T01:46:57;24.83;;;11.07;;
14209;SDS011;7188;56.070;12.698;2022-10-29T01:49:39;26.33;;;10.13;;
14209;SDS011;7188;56.070;12.698;2022-10-29T01:52:10;27.30;;;10.03;;
14209;SDS011;7188;56.070;12.698;2022-10-29T01:54:42;28.27;;;10.00;;
14209;SDS011;7188;56.070;12.698;2022-10-29T01:57:25;34.13;;;9.57;;
14209;SDS011;7188;56.070;12.698;2022-10-29T01:59:56;30.60;;;8.60;;
14209;SDS011;7188;56.070;12.698;2022-10-29T02:11:06;28.77;;;6.70;;
14209;SDS011;7188;56.070;12.698;2022-10-29T02:13:49;25.47;;;8.57;;
14209;SDS011;7188;56.070;12.698;2022-10-29T02:16:26;24.40;;;8.30;;
14209;SDS011;7188;56.070;12.698;2022-10-29T02:18:52;20.43;;;7.13;;
14209;SDS011;7188;56.070;12.698;2022-10-29T02:21:18;23.70;;;6.90;;
14209;SDS011;7188;56.070;12.698;2022-10-29T02:23:45;27.03;;;6.17;;
14209;SDS011;7188;56.070;12.698;2022-10-29T02:26:11;18.17;;;6.50;;
14209;SDS011;7188;56.070;12.698;2022-10-29T02:28:37;27.27;;;6.03;;
14209;SDS011;7188;56.070;12.698;2022-10-29T02:31:03;14.73;;;5.43;;
14209;SDS011;7188;56.070;12.698;2022-10-29T02:33:29;24.27;;;5.60;;
14209;SDS011;7188;56.070;12.698;2022-10-29T02:35:54;23.20;;;5.70;;
14209;SDS011;7188;56.070;12.698;2022-10-29T02:38:20;18.13;;;4.87;;
14209;SDS011;7188;56.070;12.698;2022-10-29T02:40:46;19.60;;;4.90;;
14209;SDS011;7188;56.070;12.698;2022-10-29T02:43:11;17.37;;;4.43;;
14209;SDS011;7188;56.070;12.698;2022-10-29T02:45:37;17.17;;;4.23;;
14209;SDS011;7188;56.070;12.698;2022-10-29T02:48:02;20.53;;;4.37;;
14209;SDS011;7188;56.070;12.698;2022-10-29T02:50:28;23.73;;;5.03;;
14209;SDS011;7188;56.070;12.698;2022-10-29T02:52:54;19.33;;;4.10;;
14209;SDS011;7188;56.070;12.698;2022-10-29T02:55:19;25.63;;;5.60;;
14209;SDS011;7188;56.070;12.698;2022-10-29T02:57:45;19.00;;;3.37;;
14209;SDS011;7188;56.070;12.698;2022-10-29T03:00:11;16.60;;;3.93;;
14209;SDS011;7188;56.070;12.698;2022-10-29T03:02:37;15.33;;;3.50;;
14209;SDS011;7188;56.070;12.698;2022-10-29T03:05:04;14.57;;;3.27;;
14209;SDS011;7188;56.070;12.698;2022-10-29T03:07:33;19.23;;;3.43;;
14209;SDS011;7188;56.070;12.698;2022-10-29T03:10:05;19.70;;;3.77;;
14209;SDS011;7188;56.070;12.698;2022-10-29T03:12:32;16.67;;;3.73;;
14209;SDS011;7188;56.070;12.698;2022-10-29T03:14:58;15.97;;;2.80;;
14209;SDS011;7188;56.070;12.698;2022-10-29T03:17:24;21.17;;;3.20;;
14209;SDS011;7188;56.070;12.698;2022-10-29T03:19:49;16.70;;;2.83;;
14209;SDS011;7188;56.070;12.698;2022-10-29T03:22:18;20.10;;;3.17;;
14209;SDS011;7188;56.070;12.698;2022-10-29T03:24:44;20.47;;;3.40;;
14209;SDS011;7188;56.070;12.698;2022-10-29T03:27:09;14.73;;;3.10;;
14209;SDS011;7188;56.070;12.698;2022-10-29T03:29:35;14.43;;;3.00;;
14209;SDS011;7188;56.070;12.698;2022-10-29T03:32:00;22.50;;;3.63;;
14209;SDS011;7188;56.070;12.698;2022-10-29T03:34:26;16.70;;;3.03;;
14209;SDS011;7188;56.070;12.698;2022-10-29T03:36:51;15.30;;;2.83;;
14209;SDS011;7188;56.070;12.698;2022-10-29T03:39:17;16.83;;;3.40;;
14209;SDS011;7188;56.070;12.698;2022-10-29T03:41:42;15.13;;;2.43;;
14209;SDS011;7188;56.070;12.698;2022-10-29T03:44:08;15.70;;;2.83;;
14209;SDS011;7188;56.070;12.698;2022-10-29T03:46:34;31.87;;;3.23;;
14209;SDS011;7188;56.070;12.698;2022-10-29T03:49:08;21.00;;;3.00;;
14209;SDS011;7188;56.070;12.698;2022-10-29T03:51:34;23.93;;;2.67;;
14209;SDS011;7188;56.070;12.698;2022-10-29T03:54:00;22.60;;;2.80;;
14209;SDS011;7188;56.070;12.698;2022-10-29T03:56:25;13.83;;;2.83;;
14209;SDS011;7188;56.070;12.698;2022-10-29T03:58:51;23.87;;;3.50;;
14209;SDS011;7188;56.070;12.698;2022-10-29T04:01:16;20.97;;;3.83;;
14209;SDS011;7188;56.070;12.698;2022-10-29T04:03:42;22.93;;;3.40;;
14209;SDS011;7188;56.070;12.698;2022-10-29T04:06:12;21.67;;;3.00;;
14209;SDS011;7188;56.070;12.698;2022-10-29T04:08:39;16.00;;;2.17;;
14209;SDS011;7188;56.070;12.698;2022-10-29T04:11:05;19.30;;;3.30;;
14209;SDS011;7188;56.070;12.698;2022-10-29T04:13:32;23.63;;;3.50;;
14209;SDS011;7188;56.070;12.698;2022-10-29T04:15:57;18.30;;;3.33;;
14209;SDS011;7188;56.070;12.698;2022-10-29T04:18:23;18.10;;;2.77;;
14209;SDS011;7188;56.070;12.698;2022-10-29T04:20:48;19.57;;;3.30;;
14209;SDS011;7188;56.070;12.698;2022-10-29T04:23:14;13.70;;;3.10;;
14209;SDS011;7188;56.070;12.698;2022-10-29T04:25:39;30.50;;;3.70;;
14209;SDS011;7188;56.070;12.698;2022-10-29T04:28:05;19.30;;;3.00;;
14209;SDS011;7188;56.070;12.698;2022-10-29T04:30:30;21.17;;;3.30;;
14209;SDS011;7188;56.070;12.698;2022-10-29T04:32:57;15.63;;;3.27;;
14209;SDS011;7188;56.070;12.698;2022-10-29T04:35:23;17.83;;;3.00;;
14209;SDS011;7188;56.070;12.698;2022-10-29T04:37:49;21.67;;;3.37;;
14209;SDS011;7188;56.070;12.698;2022-10-29T04:40:15;22.53;;;3.17;;
14209;SDS011;7188;56.070;12.698;2022-10-29T04:42:41;16.70;;;2.70;;
14209;SDS011;7188;56.070;12.698;2022-10-29T04:45:07;14.27;;;2.43;;
14209;SDS011;7188;56.070;12.698;2022-10-29T04:47:33;19.43;;;3.13;;
14209;SDS011;7188;56.070;12.698;2022-10-29T04:49:58;19.10;;;3.00;;
14209;SDS011;7188;56.070;12.698;2022-10-29T04:52:24;16.97;;;2.60;;
14209;SDS011;7188;56.070;12.698;2022-10-29T04:54:50;15.50;;;2.33;;
14209;SDS011;7188;56.070;12.698;2022-10-29T04:57:16;15.53;;;2.47;;
14209;SDS011;7188;56.070;12.698;2022-10-29T04:59:41;17.37;;;2.60;;
14209;SDS011;7188;56.070;12.698;2022-10-29T05:02:07;15.97;;;2.57;;
14209;SDS011;7188;56.070;12.698;2022-10-29T05:04:33;18.47;;;2.47;;
14209;SDS011;7188;56.070;12.698;2022-10-29T05:06:59;22.57;;;4.07;;
14209;SDS011;7188;56.070;12.698;2022-10-29T05:09:24;21.30;;;3.10;;
14209;SDS011;7188;56.070;12.698;2022-10-29T05:11:50;20.60;;;3.07;;
14209;SDS011;7188;56.070;12.698;2022-10-29T05:14:16;16.77;;;2.60;;
14209;SDS011;7188;56.070;12.698;2022-10-29T05:16:41;25.77;;;4.77;;
14209;SDS011;7188;56.070;12.698;2022-10-29T05:19:07;19.97;;;2.97;;
14209;SDS011;7188;56.070;12.698;2022-10-29T05:21:33;23.83;;;2.67;;
14209;SDS011;7188;56.070;12.698;2022-10-29T05:23:58;15.17;;;2.37;;
14209;SDS011;7188;56.070;12.698;2022-10-29T05:26:24;18.80;;;2.70;;
14209;SDS011;7188;56.070;12.698;2022-10-29T05:28:50;21.07;;;2.87;;
14209;SDS011;7188;56.070;12.698;2022-10-29T05:31:16;17.20;;;3.13;;
14209;SDS011;7188;56.070;12.698;2022-10-29T05:33:42;16.90;;;2.90;;
14209;SDS011;7188;56.070;12.698;2022-10-29T05:36:08;17.23;;;2.60;;
14209;SDS011;7188;56.070;12.698;2022-10-29T05:38:34;17.13;;;2.10;;
14209;SDS011;7188;56.070;12.698;2022-10-29T05:40:59;18.57;;;3.10;;
14209;SDS011;7188;56.070;12.698;2022-10-29T05:43:25;19.13;;;3.07;;
14209;SDS011;7188;56.070;12.698;2022-10-29T05:45:51;17.90;;;3.90;;
14209;SDS011;7188;56.070;12.698;2022-10-29T05:48:18;13.47;;;1.73;;
14209;SDS011;7188;56.070;12.698;2022-10-29T05:50:43;22.53;;;3.10;;
14209;SDS011;7188;56.070;12.698;2022-10-29T05:53:10;18.47;;;3.10;;
14209;SDS011;7188;56.070;12.698;2022-10-29T05:55:37;16.43;;;2.73;;
14209;SDS011;7188;56.070;12.698;2022-10-29T05:58:04;15.93;;;2.40;;
14209;SDS011;7188;56.070;12.698;2022-10-29T06:00:34;15.83;;;2.33;;
14209;SDS011;7188;56.070;12.698;2022-10-29T06:03:01;17.47;;;2.87;;
14209;SDS011;7188;56.070;12.698;2022-10-29T06:05:27;14.23;;;2.67;;
14209;SDS011;7188;56.070;12.698;2022-10-29T06:07:53;14.37;;;3.33;;
14209;SDS011;7188;56.070;12.698;2022-10-29T06:10:23;18.63;;;2.60;;
14209;SDS011;7188;56.070;12.698;2022-10-29T06:12:49;20.77;;;2.80;;
14209;SDS011;7188;56.070;12.698;2022-10-29T06:15:15;20.17;;;3.00;;
14209;SDS011;7188;56.070;12.698;2022-10-29T06:17:41;15.17;;;2.67;;
14209;SDS011;7188;56.070;12.698;2022-10-29T06:20:08;22.37;;;2.83;;
14209;SDS011;7188;56.070;12.698;2022-10-29T06:22:34;18.53;;;2.83;;
14209;SDS011;7188;56.070;12.698;2022-10-29T06:25:00;19.97;;;3.10;;
14209;SDS011;7188;56.070;12.698;2022-10-29T06:27:26;15.83;;;2.50;;
14209;SDS011;7188;56.070;12.698;2022-10-29T06:29:52;11.53;;;1.60;;
14209;SDS011;7188;56.070;12.698;2022-10-29T06:32:17;15.17;;;2.50;;
14209;SDS011;7188;56.070;12.698;2022-10-29T06:34:43;12.13;;;2.53;;
14209;SDS011;7188;56.070;12.698;2022-10-29T06:37:08;13.63;;;2.43;;
14209;SDS011;7188;56.070;12.698;2022-10-29T06:39:34;15.90;;;2.70;;
14209;SDS011;7188;56.070;12.698;2022-10-29T06:42:00;14.60;;;2.53;;
14209;SDS011;7188;56.070;12.698;2022-10-29T06:44:25;15.53;;;3.00;;
14209;SDS011;7188;56.070;12.698;2022-10-29T06:46:51;17.13;;;2.37;;
14209;SDS011;7188;56.070;12.698;2022-10-29T06:49:17;18.83;;;2.80;;
14209;SDS011;7188;56.070;12.698;2022-10-29T06:51:42;17.20;;;2.47;;
14209;SDS011;7188;56.070;12.698;2022-10-29T06:54:08;14.23;;;2.30;;
14209;SDS011;7188;56.070;12.698;2022-10-29T06:56:33;13.43;;;2.27;;
14209;SDS011;7188;56.070;12.698;2022-10-29T06:58:59;11.03;;;1.83;;
14209;SDS011;7188;56.070;12.698;2022-10-29T07:01:25;12.33;;;2.37;;
14209;SDS011;7188;56.070;12.698;2022-10-29T07:03:56;18.30;;;2.53;;
14209;SDS011;7188;56.070;12.698;2022-10-29T07:06:22;19.53;;;2.20;;
14209;SDS011;7188;56.070;12.698;2022-10-29T07:08:48;14.40;;;2.00;;
14209;SDS011;7188;56.070;12.698;2022-10-29T07:11:14;13.57;;;2.00;;
14209;SDS011;7188;56.070;12.698;2022-10-29T07:13:40;12.87;;;1.90;;
14209;SDS011;7188;56.070;12.698;2022-10-29T07:16:05;15.80;;;2.37;;
14209;SDS011;7188;56.070;12.698;2022-10-29T07:18:31;18.13;;;2.70;;
14209;SDS011;7188;56.070;12.698;2022-10-29T07:20:57;14.83;;;1.87;;
14209;SDS011;7188;56.070;12.698;2022-10-29T07:23:23;20.53;;;1.97;;
14209;SDS011;7188;56.070;12.698;2022-10-29T07:25:50;17.10;;;2.67;;
14209;SDS011;7188;56.070;12.698;2022-10-29T07:28:18;17.30;;;2.17;;
14209;SDS011;7188;56.070;12.698;2022-10-29T07:30:45;14.73;;;2.23;;
14209;SDS011;7188;56.070;12.698;2022-10-29T07:33:12;18.60;;;2.23;;
14209;SDS011;7188;56.070;12.698;2022-10-29T07:35:38;12.53;;;2.03;;
14209;SDS011;7188;56.070;12.698;2022-10-29T07:38:05;18.20;;;2.43;;
14209;SDS011;7188;56.070;12.698;2022-10-29T07:40:31;11.40;;;1.73;;
14209;SDS011;7188;56.070;12.698;2022-10-29T07:42:57;14.50;;;2.20;;
14209;SDS011;7188;56.070;12.698;2022-10-29T07:45:23;13.63;;;2.37;;
14209;SDS011;7188;56.070;12.698;2022-10-29T07:47:50;15.17;;;2.50;;
14209;SDS011;7188;56.070;12.698;2022-10-29T07:50:26;12.50;;;2.53;;
14209;SDS011;7188;56.070;12.698;2022-10-29T07:52:53;12.13;;;2.03;;
14209;SDS011;7188;56.070;12.698;2022-10-29T07:55:19;17.43;;;2.47;;
14209;SDS011;7188;56.070;12.698;2022-10-29T07:57:57;21.23;;;2.77;;
14209;SDS011;7188;56.070;12.698;2022-10-29T08:00:26;16.50;;;1.83;;
14209;SDS011;7188;56.070;12.698;2022-10-29T08:02:53;13.63;;;2.40;;
14209;SDS011;7188;56.070;12.698;2022-10-29T08:05:19;13.47;;;2.33;;
14209;SDS011;7188;56.070;12.698;2022-10-29T08:07:45;18.63;;;2.70;;
14209;SDS011;7188;56.070;12.698;2022-10-29T08:10:11;11.20;;;2.20;;
14209;SDS011;7188;56.070;12.698;2022-10-29T08:12:36;14.10;;;1.93;;
14209;SDS011;7188;56.070;12.698;2022-10-29T08:15:02;21.47;;;2.70;;
14209;SDS011;7188;56.070;12.698;2022-10-29T08:17:29;9.13;;;1.60;;
14209;SDS011;7188;56.070;12.698;2022-10-29T08:19:56;14.00;;;1.87;;
14209;SDS011;7188;56.070;12.698;2022-10-29T08:22:21;13.40;;;2.00;;
14209;SDS011;7188;56.070;12.698;2022-10-29T08:24:47;18.87;;;2.60;;
14209;SDS011;7188;56.070;12.698;2022-10-29T08:27:13;14.53;;;1.93;;
14209;SDS011;7188;56.070;12.698;2022-10-29T08:29:53;9.20;;;1.70;;
14209;SDS011;7188;56.070;12.698;2022-10-29T08:32:19;10.03;;;1.50;;
14209;SDS011;7188;56.070;12.698;2022-10-29T08:34:45;5.47;;;1.40;;
14209;SDS011;7188;56.070;12.698;2022-10-29T08:37:10;8.30;;;1.40;;
14209;SDS011;7188;56.070;12.698;2022-10-29T08:42:49;14.03;;;2.63;;
14209;SDS011;7188;56.070;12.698;2022-10-29T08:45:47;10.13;;;2.37;;
14209;SDS011;7188;56.070;12.698;2022-10-29T08:51:07;10.17;;;1.33;;
14209;SDS011;7188;56.070;12.698;2022-10-29T08:53:51;11.23;;;1.97;;
14209;SDS011;7188;56.070;12.698;2022-10-29T08:56:18;13.27;;;2.13;;
14209;SDS011;7188;56.070;12.698;2022-10-29T09:01:26;8.93;;;1.37;;
14209;SDS011;7188;56.070;12.698;2022-10-29T09:03:52;13.20;;;1.83;;
14209;SDS011;7188;56.070;12.698;2022-10-29T09:06:23;14.97;;;2.50;;
14209;SDS011;7188;56.070;12.698;2022-10-29T09:09:25;9.50;;;1.30;;
14209;SDS011;7188;56.070;12.698;2022-10-29T09:21:00;10.90;;;1.43;;
14209;SDS011;7188;56.070;12.698;2022-10-29T09:26:21;7.80;;;1.50;;
14209;SDS011;7188;56.070;12.698;2022-10-29T09:29:05;8.83;;;1.40;;
14209;SDS011;7188;56.070;12.698;2022-10-29T09:31:52;16.30;;;1.87;;
14209;SDS011;7188;56.070;12.698;2022-10-29T09:34:29;11.57;;;1.43;;
14209;SDS011;7188;56.070;12.698;2022-10-29T09:36:58;6.37;;;1.30;;
14209;SDS011;7188;56.070;12.698;2022-10-29T09:39:27;6.20;;;1.67;;
14209;SDS011;7188;56.070;12.698;2022-10-29T09:41:57;12.57;;;1.33;;
14209;SDS011;7188;56.070;12.698;2022-10-29T09:44:33;11.57;;;1.60;;
14209;SDS011;7188;56.070;12.698;2022-10-29T09:47:15;8.20;;;1.20;;
14209;SDS011;7188;56.070;12.698;2022-10-29T09:52:38;10.43;;;1.80;;
14209;SDS011;7188;56.070;12.698;2022-10-29T09:55:06;9.77;;;1.60;;
14209;SDS011;7188;56.070;12.698;2022-10-29T09:57:41;8.53;;;1.10;;
14209;SDS011;7188;56.070;12.698;2022-10-29T10:00:18;9.00;;;1.33;;
14209;SDS011;7188;56.070;12.698;2022-10-29T10:02:51;9.97;;;0.97;;
14209;SDS011;7188;56.070;12.698;2022-10-29T10:05:28;12.40;;;1.47;;
14209;SDS011;7188;56.070;12.698;2022-10-29T10:10:38;7.17;;;1.40;;
14209;SDS011;7188;56.070;12.698;2022-10-29T10:13:52;7.37;;;1.10;;
14209;SDS011;7188;56.070;12.698;2022-10-29T10:16:28;11.40;;;1.10;;
14209;SDS011;7188;56.070;12.698;2022-10-29T10:18:56;9.47;;;1.70;;
14209;SDS011;7188;56.070;12.698;2022-10-29T10:21:29;5.73;;;1.30;;
14209;SDS011;7188;56.070;12.698;2022-10-29T10:23:56;6.83;;;1.37;;
14209;SDS011;7188;56.070;12.698;2022-10-29T10:29:18;8.60;;;1.40;;
14209;SDS011;7188;56.070;12.698;2022-10-29T10:32:09;8.27;;;1.20;;
14209;SDS011;7188;56.070;12.698;2022-10-29T10:34:40;8.67;;;1.13;;
14209;SDS011;7188;56.070;12.698;2022-10-29T10:37:10;7.13;;;1.20;;
14209;SDS011;7188;56.070;12.698;2022-10-29T10:40:03;5.97;;;1.03;;
14209;SDS011;7188;56.070;12.698;2022-10-29T10:42:29;4.43;;;1.07;;
14209;SDS011;7188;56.070;12.698;2022-10-29T10:45:02;7.50;;;0.90;;
14209;SDS011;7188;56.070;12.698;2022-10-29T10:47:37;11.13;;;1.27;;
14209;SDS011;7188;56.070;12.698;2022-10-29T10:50:23;12.97;;;1.60;;
14209;SDS011;7188;56.070;12.698;2022-10-29T10:52:53;8.83;;;1.97;;
14209;SDS011;7188;56.070;12.698;2022-10-29T10:55:25;8.93;;;1.47;;
14209;SDS011;7188;56.070;12.698;2022-10-29T10:58:10;7.77;;;1.37;;
14209;SDS011;7188;56.070;12.698;2022-10-29T11:00:39;5.63;;;0.80;;
14209;SDS011;7188;56.070;12.698;2022-10-29T11:03:14;5.67;;;1.03;;
14209;SDS011;7188;56.070;12.698;2022-10-29T11:08:27;9.93;;;1.00;;
14209;SDS011;7188;56.070;12.698;2022-10-29T11:13:43;3.57;;;1.00;;
14209;SDS011;7188;56.070;12.698;2022-10-29T11:16:21;7.67;;;1.10;;
14209;SDS011;7188;56.070;12.698;2022-10-29T11:19:04;8.33;;;1.00;;
14209;SDS011;7188;56.070;12.698;2022-10-29T11:27:29;7.70;;;1.27;;
14209;SDS011;7188;56.070;12.698;2022-10-29T11:30:16;8.53;;;1.17;;
14209;SDS011;7188;56.070;12.698;2022-10-29T11:33:04;5.40;;;0.90;;
14209;SDS011;7188;56.070;12.698;2022-10-29T11:35:56;7.57;;;1.00;;
14209;SDS011;7188;56.070;12.698;2022-10-29T11:38:36;4.10;;;1.17;;
14209;SDS011;7188;56.070;12.698;2022-10-29T11:43:51;8.23;;;1.13;;
14209;SDS011;7188;56.070;12.698;2022-10-29T12:00:02;6.23;;;1.10;;
14209;SDS011;7188;56.070;12.698;2022-10-29T12:08:02;4.53;;;0.83;;
14209;SDS011;7188;56.070;12.698;2022-10-29T12:19:33;9.43;;;1.40;;
14209;SDS011;7188;56.070;12.698;2022-10-29T12:34:53;7.67;;;1.23;;
14209;SDS011;7188;56.070;12.698;2022-10-29T12:40:40;8.00;;;0.80;;
14209;SDS011;7188;56.070;12.698;2022-10-29T12:43:01;5.13;;;1.50;;
14209;SDS011;7188;56.070;12.698;2022-10-29T12:45:31;6.03;;;0.90;;
14209;SDS011;7188;56.070;12.698;2022-10-29T12:53:27;6.13;;;0.90;;
14209;SDS011;7188;56.070;12.698;2022-10-29T12:55:59;7.97;;;1.10;;
14209;SDS011;7188;56.070;12.698;2022-10-29T13:09:13;8.90;;;0.90;;
14209;SDS011;7188;56.070;12.698;2022-10-29T13:11:51;7.73;;;1.07;;
14209;SDS011;7188;56.070;12.698;2022-10-29T13:14:26;4.13;;;0.73;;
14209;SDS011;7188;56.070;12.698;2022-10-29T13:16:55;9.20;;;1.30;;
14209;SDS011;7188;56.070;12.698;2022-10-29T13:22:05;6.07;;;1.07;;
14209;SDS011;7188;56.070;12.698;2022-10-29T13:28:06;5.73;;;1.20;;
14209;SDS011;7188;56.070;12.698;2022-10-29T13:30:46;3.63;;;0.80;;
14209;SDS011;7188;56.070;12.698;2022-10-29T13:35:58;4.43;;;0.90;;
14209;SDS011;7188;56.070;12.698;2022-10-29T13:38:41;4.93;;;0.93;;
14209;SDS011;7188;56.070;12.698;2022-10-29T13:41:37;8.50;;;0.97;;
14209;SDS011;7188;56.070;12.698;2022-10-29T13:46:33;4.80;;;0.73;;
14209;SDS011;7188;56.070;12.698;2022-10-29T13:49:02;5.70;;;1.00;;
14209;SDS011;7188;56.070;12.698;2022-10-29T13:51:37;7.60;;;1.40;;
14209;SDS011;7188;56.070;12.698;2022-10-29T13:54:29;8.53;;;1.00;;
14209;SDS011;7188;56.070;12.698;2022-10-29T13:59:41;3.97;;;1.17;;
14209;SDS011;7188;56.070;12.698;2022-10-29T14:04:53;7.97;;;0.80;;
14209;SDS011;7188;56.070;12.698;2022-10-29T14:07:23;6.20;;;1.37;;
14209;SDS011;7188;56.070;12.698;2022-10-29T14:09:55;7.60;;;0.90;;
14209;SDS011;7188;56.070;12.698;2022-10-29T14:12:28;4.60;;;0.97;;
14209;SDS011;7188;56.070;12.698;2022-10-29T14:15:03;3.17;;;0.80;;
14209;SDS011;7188;56.070;12.698;2022-10-29T14:17:32;4.10;;;0.83;;
14209;SDS011;7188;56.070;12.698;2022-10-29T14:19:58;5.37;;;1.07;;
14209;SDS011;7188;56.070;12.698;2022-10-29T14:22:27;3.57;;;1.07;;
14209;SDS011;7188;56.070;12.698;2022-10-29T14:24:54;3.30;;;0.80;;
14209;SDS011;7188;56.070;12.698;2022-10-29T14:27:20;9.00;;;1.07;;
14209;SDS011;7188;56.070;12.698;2022-10-29T14:29:45;6.40;;;0.90;;
14209;SDS011;7188;56.070;12.698;2022-10-29T14:32:13;6.73;;;1.27;;
14209;SDS011;7188;56.070;12.698;2022-10-29T14:34:42;6.00;;;0.90;;
14209;SDS011;7188;56.070;12.698;2022-10-29T14:39:42;3.23;;;0.90;;
14209;SDS011;7188;56.070;12.698;2022-10-29T14:42:13;3.83;;;0.60;;
14209;SDS011;7188;56.070;12.698;2022-10-29T14:44:44;6.07;;;1.00;;
14209;SDS011;7188;56.070;12.698;2022-10-29T14:47:21;5.90;;;1.20;;
14209;SDS011;7188;56.070;12.698;2022-10-29T14:49:49;4.00;;;0.70;;
14209;SDS011;7188;56.070;12.698;2022-10-29T14:52:27;6.30;;;1.03;;
14209;SDS011;7188;56.070;12.698;2022-10-29T14:54:56;2.37;;;0.77;;
14209;SDS011;7188;56.070;12.698;2022-10-29T14:57:26;4.33;;;0.70;;
14209;SDS011;7188;56.070;12.698;2022-10-29T14:59:57;5.90;;;0.77;;
14209;SDS011;7188;56.070;12.698;2022-10-29T15:02:26;3.50;;;0.90;;
14209;SDS011;7188;56.070;12.698;2022-10-29T15:05:20;3.07;;;0.87;;
14209;SDS011;7188;56.070;12.698;2022-10-29T15:13:13;5.53;;;0.90;;
14209;SDS011;7188;56.070;12.698;2022-10-29T15:18:29;3.27;;;0.50;;
14209;SDS011;7188;56.070;12.698;2022-10-29T15:20:57;4.53;;;0.90;;
14209;SDS011;7188;56.070;12.698;2022-10-29T15:23:35;6.37;;;0.90;;
14209;SDS011;7188;56.070;12.698;2022-10-29T15:26:08;3.83;;;0.60;;
14209;SDS011;7188;56.070;12.698;2022-10-29T15:28:40;4.13;;;0.90;;
14209;SDS011;7188;56.070;12.698;2022-10-29T15:33:54;3.60;;;0.87;;
14209;SDS011;7188;56.070;12.698;2022-10-29T15:39:59;2.23;;;0.90;;
14209;SDS011;7188;56.070;12.698;2022-10-29T15:42:28;9.13;;;1.43;;
14209;SDS011;7188;56.070;12.698;2022-10-29T15:47:38;3.13;;;0.80;;
14209;SDS011;7188;56.070;12.698;2022-10-29T15:50:09;2.67;;;0.73;;
14209;SDS011;7188;56.070;12.698;2022-10-29T15:52:43;3.30;;;0.80;;
14209;SDS011;7188;56.070;12.698;2022-10-29T15:55:23;2.53;;;0.60;;
14209;SDS011;7188;56.070;12.698;2022-10-29T16:00:38;4.60;;;0.77;;
14209;SDS011;7188;56.070;12.698;2022-10-29T16:05:40;3.40;;;0.80;;
14209;SDS011;7188;56.070;12.698;2022-10-29T16:08:08;4.97;;;1.03;;
14209;SDS011;7188;56.070;12.698;2022-10-29T16:10:44;3.73;;;0.80;;
14209;SDS011;7188;56.070;12.698;2022-10-29T16:13:10;4.40;;;0.73;;
14209;SDS011;7188;56.070;12.698;2022-10-29T16:15:36;4.23;;;0.80;;
14209;SDS011;7188;56.070;12.698;2022-10-29T16:18:01;4.50;;;0.87;;
14209;SDS011;7188;56.070;12.698;2022-10-29T16:20:27;2.60;;;0.90;;
14209;SDS011;7188;56.070;12.698;2022-10-29T16:22:52;4.40;;;1.20;;
14209;SDS011;7188;56.070;12.698;2022-10-29T16:25:27;3.67;;;0.80;;
14209;SDS011;7188;56.070;12.698;2022-10-29T16:27:53;6.77;;;1.10;;
14209;SDS011;7188;56.070;12.698;2022-10-29T16:30:19;2.87;;;1.00;;
14209;SDS011;7188;56.070;12.698;2022-10-29T16:32:46;6.67;;;1.10;;
14209;SDS011;7188;56.070;12.698;2022-10-29T16:35:24;5.37;;;1.10;;
14209;SDS011;7188;56.070;12.698;2022-10-29T16:37:51;6.07;;;0.93;;
14209;SDS011;7188;56.070;12.698;2022-10-29T16:40:18;2.07;;;1.13;;
14209;SDS011;7188;56.070;12.698;2022-10-29T16:42:45;4.63;;;1.47;;
14209;SDS011;7188;56.070;12.698;2022-10-29T16:45:18;5.30;;;0.90;;
14209;SDS011;7188;56.070;12.698;2022-10-29T16:47:45;6.20;;;1.00;;
14209;SDS011;7188;56.070;12.698;2022-10-29T16:50:21;4.17;;;0.67;;
14209;SDS011;7188;56.070;12.698;2022-10-29T16:52:58;3.80;;;1.03;;
14209;SDS011;7188;56.070;12.698;2022-10-29T16:55:26;4.17;;;0.63;;
14209;SDS011;7188;56.070;12.698;2022-10-29T16:57:53;6.90;;;0.83;;
14209;SDS011;7188;56.070;12.698;2022-10-29T17:00:19;4.97;;;0.63;;
14209;SDS011;7188;56.070;12.698;2022-10-29T17:02:45;3.67;;;0.50;;
14209;SDS011;7188;56.070;12.698;2022-10-29T17:05:11;3.23;;;0.80;;
14209;SDS011;7188;56.070;12.698;2022-10-29T17:07:37;4.87;;;0.70;;
14209;SDS011;7188;56.070;12.698;2022-10-29T17:10:03;3.53;;;0.80;;
14209;SDS011;7188;56.070;12.698;2022-10-29T17:12:29;0.77;;;0.57;;
14209;SDS011;7188;56.070;12.698;2022-10-29T17:14:55;4.43;;;1.00;;
14209;SDS011;7188;56.070;12.698;2022-10-29T17:17:20;3.73;;;1.00;;
14209;SDS011;7188;56.070;12.698;2022-10-29T17:19:46;4.27;;;0.80;;
14209;SDS011;7188;56.070;12.698;2022-10-29T17:22:11;4.87;;;0.70;;
14209;SDS011;7188;56.070;12.698;2022-10-29T17:24:43;4.87;;;0.70;;
14209;SDS011;7188;56.070;12.698;2022-10-29T17:27:09;3.73;;;0.77;;
14209;SDS011;7188;56.070;12.698;2022-10-29T17:29:36;4.07;;;0.70;;
14209;SDS011;7188;56.070;12.698;2022-10-29T17:32:02;5.00;;;1.10;;
14209;SDS011;7188;56.070;12.698;2022-10-29T17:34:28;6.33;;;0.80;;
14209;SDS011;7188;56.070;12.698;2022-10-29T17:36:54;2.83;;;0.60;;
14209;SDS011;7188;56.070;12.698;2022-10-29T17:39:19;4.33;;;1.00;;
14209;SDS011;7188;56.070;12.698;2022-10-29T17:41:45;2.23;;;0.90;;
14209;SDS011;7188;56.070;12.698;2022-10-29T17:44:11;5.57;;;1.00;;
14209;SDS011;7188;56.070;12.698;2022-10-29T17:46:37;6.50;;;0.90;;